sensor_id;sensor_type;location;lat;lon;timestamp;P1;durP1;ratioP1;P2;durP2;ratioP2
39098;SDS011;24844;52.380;7.018;2024-03-29T00:01:49;5.40;;;0.85;;
39098;SDS011;24844;52.380;7.018;2024-03-29T00:04:15;4.47;;;0.95;;
39098;SDS011;24844;52.380;7.018;2024-03-29T00:06:40;4.45;;;0.80;;
39098;SDS011;24844;52.380;7.018;2024-03-29T00:09:06;3.10;;;0.60;;
39098;SDS011;24844;52.380;7.018;2024-03-29T00:11:31;3.22;;;0.80;;
39098;SDS011;24844;52.380;7.018;2024-03-29T00:13:57;4.13;;;0.98;;
39098;SDS011;24844;52.380;7.018;2024-03-29T00:16:23;2.15;;;0.73;;
39098;SDS011;24844;52.380;7.018;2024-03-29T00:18:50;8.60;;;1.10;;
39098;SDS011;24844;52.380;7.018;2024-03-29T00:21:17;4.07;;;0.70;;
39098;SDS011;24844;52.380;7.018;2024-03-29T00:23:43;4.38;;;0.85;;
39098;SDS011;24844;52.380;7.018;2024-03-29T00:26:12;3.05;;;0.77;;
39098;SDS011;24844;52.380;7.018;2024-03-29T00:28:37;7.95;;;0.95;;
39098;SDS011;24844;52.380;7.018;2024-03-29T00:31:04;3.88;;;0.50;;
39098;SDS011;24844;52.380;7.018;2024-03-29T00:33:29;3.17;;;0.73;;
39098;SDS011;24844;52.380;7.018;2024-03-29T00:35:55;6.45;;;0.90;;
39098;SDS011;24844;52.380;7.018;2024-03-29T00:38:21;4.28;;;0.80;;
39098;SDS011;24844;52.380;7.018;2024-03-29T00:40:46;6.40;;;0.80;;
39098;SDS011;24844;52.380;7.018;2024-03-29T00:43:12;4.60;;;0.80;;
39098;SDS011;24844;52.380;7.018;2024-03-29T00:45:37;3.97;;;0.93;;
39098;SDS011;24844;52.380;7.018;2024-03-29T00:48:03;4.65;;;1.00;;
39098;SDS011;24844;52.380;7.018;2024-03-29T00:50:29;6.25;;;0.90;;
39098;SDS011;24844;52.380;7.018;2024-03-29T00:52:54;6.63;;;1.00;;
39098;SDS011;24844;52.380;7.018;2024-03-29T00:55:20;5.22;;;1.00;;
39098;SDS011;24844;52.380;7.018;2024-03-29T00:57:45;8.00;;;1.48;;
39098;SDS011;24844;52.380;7.018;2024-03-29T01:00:11;9.98;;;1.23;;
39098;SDS011;24844;52.380;7.018;2024-03-29T01:02:37;6.50;;;1.13;;
39098;SDS011;24844;52.380;7.018;2024-03-29T01:05:02;5.13;;;0.80;;
39098;SDS011;24844;52.380;7.018;2024-03-29T01:07:28;3.97;;;1.10;;
39098;SDS011;24844;52.380;7.018;2024-03-29T01:09:54;3.50;;;1.33;;
39098;SDS011;24844;52.380;7.018;2024-03-29T01:12:19;5.20;;;0.95;;
39098;SDS011;24844;52.380;7.018;2024-03-29T01:14:45;5.47;;;1.17;;
39098;SDS011;24844;52.380;7.018;2024-03-29T01:17:11;3.88;;;0.90;;
39098;SDS011;24844;52.380;7.018;2024-03-29T01:19:36;6.00;;;1.55;;
39098;SDS011;24844;52.380;7.018;2024-03-29T01:22:02;6.95;;;1.02;;
39098;SDS011;24844;52.380;7.018;2024-03-29T01:24:28;5.90;;;1.38;;
39098;SDS011;24844;52.380;7.018;2024-03-29T01:26:54;6.82;;;1.50;;
39098;SDS011;24844;52.380;7.018;2024-03-29T01:29:19;3.78;;;0.82;;
39098;SDS011;24844;52.380;7.018;2024-03-29T01:31:45;6.43;;;1.20;;
39098;SDS011;24844;52.380;7.018;2024-03-29T01:34:10;7.50;;;1.10;;
39098;SDS011;24844;52.380;7.018;2024-03-29T01:36:36;6.18;;;1.10;;
39098;SDS011;24844;52.380;7.018;2024-03-29T01:39:01;6.90;;;1.50;;
39098;SDS011;24844;52.380;7.018;2024-03-29T01:41:27;7.07;;;1.05;;
39098;SDS011;24844;52.380;7.018;2024-03-29T01:43:53;4.95;;;1.17;;
39098;SDS011;24844;52.380;7.018;2024-03-29T01:46:19;4.97;;;0.98;;
39098;SDS011;24844;52.380;7.018;2024-03-29T01:48:47;3.38;;;0.90;;
39098;SDS011;24844;52.380;7.018;2024-03-29T01:51:15;9.77;;;1.17;;
39098;SDS011;24844;52.380;7.018;2024-03-29T01:53:43;6.20;;;1.13;;
39098;SDS011;24844;52.380;7.018;2024-03-29T01:56:09;3.63;;;1.10;;
39098;SDS011;24844;52.380;7.018;2024-03-29T01:58:36;5.32;;;1.00;;
39098;SDS011;24844;52.380;7.018;2024-03-29T02:01:04;2.88;;;1.00;;
39098;SDS011;24844;52.380;7.018;2024-03-29T02:03:32;6.38;;;1.27;;
39098;SDS011;24844;52.380;7.018;2024-03-29T02:05:57;3.67;;;1.00;;
39098;SDS011;24844;52.380;7.018;2024-03-29T02:08:24;3.80;;;0.80;;
39098;SDS011;24844;52.380;7.018;2024-03-29T02:10:50;5.13;;;0.90;;
39098;SDS011;24844;52.380;7.018;2024-03-29T02:13:16;5.85;;;1.15;;
39098;SDS011;24844;52.380;7.018;2024-03-29T02:15:42;5.35;;;1.17;;
39098;SDS011;24844;52.380;7.018;2024-03-29T02:18:08;5.68;;;0.80;;
39098;SDS011;24844;52.380;7.018;2024-03-29T02:20:33;3.13;;;1.10;;
39098;SDS011;24844;52.380;7.018;2024-03-29T02:23:09;4.20;;;1.00;;
39098;SDS011;24844;52.380;7.018;2024-03-29T02:25:36;3.33;;;1.05;;
39098;SDS011;24844;52.380;7.018;2024-03-29T02:28:03;4.55;;;0.80;;
39098;SDS011;24844;52.380;7.018;2024-03-29T02:30:29;6.32;;;0.95;;
39098;SDS011;24844;52.380;7.018;2024-03-29T02:32:55;4.88;;;1.00;;
39098;SDS011;24844;52.380;7.018;2024-03-29T02:35:21;5.30;;;1.00;;
39098;SDS011;24844;52.380;7.018;2024-03-29T02:37:47;4.32;;;0.80;;
39098;SDS011;24844;52.380;7.018;2024-03-29T02:40:12;6.88;;;0.77;;
39098;SDS011;24844;52.380;7.018;2024-03-29T02:42:38;2.72;;;0.80;;
39098;SDS011;24844;52.380;7.018;2024-03-29T02:45:03;3.38;;;0.82;;
39098;SDS011;24844;52.380;7.018;2024-03-29T02:47:29;5.25;;;0.90;;
39098;SDS011;24844;52.380;7.018;2024-03-29T02:49:55;3.30;;;0.77;;
39098;SDS011;24844;52.380;7.018;2024-03-29T02:52:20;6.38;;;1.17;;
39098;SDS011;24844;52.380;7.018;2024-03-29T02:54:46;4.63;;;0.85;;
39098;SDS011;24844;52.380;7.018;2024-03-29T02:57:11;7.95;;;1.33;;
39098;SDS011;24844;52.380;7.018;2024-03-29T02:59:39;2.80;;;0.90;;
39098;SDS011;24844;52.380;7.018;2024-03-29T03:02:05;6.77;;;0.93;;
39098;SDS011;24844;52.380;7.018;2024-03-29T03:04:30;4.05;;;0.70;;
39098;SDS011;24844;52.380;7.018;2024-03-29T03:06:56;7.72;;;0.82;;
39098;SDS011;24844;52.380;7.018;2024-03-29T03:09:41;3.05;;;0.90;;
39098;SDS011;24844;52.380;7.018;2024-03-29T03:12:25;4.38;;;0.73;;
39098;SDS011;24844;52.380;7.018;2024-03-29T03:14:51;4.75;;;0.70;;
39098;SDS011;24844;52.380;7.018;2024-03-29T03:17:17;3.83;;;0.85;;
39098;SDS011;24844;52.380;7.018;2024-03-29T03:19:43;2.63;;;0.68;;
39098;SDS011;24844;52.380;7.018;2024-03-29T03:22:08;4.70;;;0.98;;
39098;SDS011;24844;52.380;7.018;2024-03-29T03:24:34;6.50;;;1.10;;
39098;SDS011;24844;52.380;7.018;2024-03-29T03:26:59;3.33;;;0.98;;
39098;SDS011;24844;52.380;7.018;2024-03-29T03:29:25;4.70;;;0.80;;
39098;SDS011;24844;52.380;7.018;2024-03-29T03:31:50;4.55;;;0.77;;
39098;SDS011;24844;52.380;7.018;2024-03-29T03:34:16;3.05;;;0.90;;
39098;SDS011;24844;52.380;7.018;2024-03-29T03:36:41;3.47;;;0.73;;
39098;SDS011;24844;52.380;7.018;2024-03-29T03:39:07;2.90;;;0.60;;
39098;SDS011;24844;52.380;7.018;2024-03-29T03:41:32;4.90;;;0.70;;
39098;SDS011;24844;52.380;7.018;2024-03-29T03:43:58;2.92;;;0.68;;
39098;SDS011;24844;52.380;7.018;2024-03-29T03:46:23;6.88;;;1.15;;
39098;SDS011;24844;52.380;7.018;2024-03-29T03:48:49;5.22;;;0.80;;
39098;SDS011;24844;52.380;7.018;2024-03-29T03:51:14;3.15;;;0.60;;
39098;SDS011;24844;52.380;7.018;2024-03-29T03:53:41;4.32;;;1.13;;
39098;SDS011;24844;52.380;7.018;2024-03-29T03:56:06;2.53;;;0.50;;
39098;SDS011;24844;52.380;7.018;2024-03-29T03:58:32;4.95;;;0.95;;
39098;SDS011;24844;52.380;7.018;2024-03-29T04:01:03;5.72;;;1.08;;
39098;SDS011;24844;52.380;7.018;2024-03-29T04:03:29;3.85;;;0.70;;
39098;SDS011;24844;52.380;7.018;2024-03-29T04:05:55;2.50;;;0.73;;
39098;SDS011;24844;52.380;7.018;2024-03-29T04:08:20;3.30;;;0.50;;
39098;SDS011;24844;52.380;7.018;2024-03-29T04:10:46;4.25;;;0.80;;
39098;SDS011;24844;52.380;7.018;2024-03-29T04:13:11;4.18;;;1.05;;
39098;SDS011;24844;52.380;7.018;2024-03-29T04:15:37;5.97;;;1.00;;
39098;SDS011;24844;52.380;7.018;2024-03-29T04:18:02;2.80;;;0.60;;
39098;SDS011;24844;52.380;7.018;2024-03-29T04:20:28;6.13;;;0.93;;
39098;SDS011;24844;52.380;7.018;2024-03-29T04:22:53;4.22;;;0.82;;
39098;SDS011;24844;52.380;7.018;2024-03-29T04:25:19;3.03;;;0.60;;
39098;SDS011;24844;52.380;7.018;2024-03-29T04:27:44;4.65;;;0.75;;
39098;SDS011;24844;52.380;7.018;2024-03-29T04:30:10;2.72;;;0.73;;
39098;SDS011;24844;52.380;7.018;2024-03-29T04:32:36;4.97;;;0.50;;
39098;SDS011;24844;52.380;7.018;2024-03-29T04:35:01;4.47;;;0.90;;
39098;SDS011;24844;52.380;7.018;2024-03-29T04:37:27;3.63;;;0.88;;
39098;SDS011;24844;52.380;7.018;2024-03-29T04:39:53;3.35;;;0.50;;
39098;SDS011;24844;52.380;7.018;2024-03-29T04:42:18;3.10;;;0.77;;
39098;SDS011;24844;52.380;7.018;2024-03-29T04:44:44;6.15;;;0.50;;
39098;SDS011;24844;52.380;7.018;2024-03-29T04:47:09;3.80;;;0.80;;
39098;SDS011;24844;52.380;7.018;2024-03-29T04:49:35;4.55;;;0.50;;
39098;SDS011;24844;52.380;7.018;2024-03-29T04:52:04;4.13;;;0.63;;
39098;SDS011;24844;52.380;7.018;2024-03-29T04:54:30;3.00;;;0.47;;
39098;SDS011;24844;52.380;7.018;2024-03-29T04:56:56;4.50;;;1.00;;
39098;SDS011;24844;52.380;7.018;2024-03-29T04:59:22;3.17;;;0.93;;
39098;SDS011;24844;52.380;7.018;2024-03-29T05:01:48;1.27;;;0.57;;
39098;SDS011;24844;52.380;7.018;2024-03-29T05:04:18;3.85;;;0.57;;
39098;SDS011;24844;52.380;7.018;2024-03-29T05:06:53;3.30;;;0.32;;
39098;SDS011;24844;52.380;7.018;2024-03-29T05:09:23;3.13;;;0.40;;
39098;SDS011;24844;52.380;7.018;2024-03-29T05:11:49;7.20;;;0.80;;
39098;SDS011;24844;52.380;7.018;2024-03-29T05:14:15;3.95;;;0.70;;
39098;SDS011;24844;52.380;7.018;2024-03-29T05:16:43;1.85;;;0.55;;
39098;SDS011;24844;52.380;7.018;2024-03-29T05:19:09;5.82;;;0.60;;
39098;SDS011;24844;52.380;7.018;2024-03-29T05:21:34;2.67;;;0.65;;
39098;SDS011;24844;52.380;7.018;2024-03-29T05:24:00;3.83;;;0.50;;
39098;SDS011;24844;52.380;7.018;2024-03-29T05:26:25;3.65;;;0.68;;
39098;SDS011;24844;52.380;7.018;2024-03-29T05:28:51;2.47;;;0.50;;
39098;SDS011;24844;52.380;7.018;2024-03-29T05:31:19;4.03;;;0.60;;
39098;SDS011;24844;52.380;7.018;2024-03-29T05:33:44;4.57;;;0.70;;
39098;SDS011;24844;52.380;7.018;2024-03-29T05:36:10;2.88;;;0.88;;
39098;SDS011;24844;52.380;7.018;2024-03-29T05:38:38;3.42;;;0.63;;
39098;SDS011;24844;52.380;7.018;2024-03-29T05:41:04;2.60;;;0.68;;
39098;SDS011;24844;52.380;7.018;2024-03-29T05:43:30;8.02;;;0.60;;
39098;SDS011;24844;52.380;7.018;2024-03-29T05:45:56;3.67;;;0.82;;
39098;SDS011;24844;52.380;7.018;2024-03-29T05:48:21;2.97;;;0.70;;
39098;SDS011;24844;52.380;7.018;2024-03-29T05:50:47;3.00;;;0.75;;
39098;SDS011;24844;52.380;7.018;2024-03-29T05:53:13;5.32;;;0.80;;
39098;SDS011;24844;52.380;7.018;2024-03-29T05:55:38;3.38;;;1.15;;
39098;SDS011;24844;52.380;7.018;2024-03-29T05:58:04;2.20;;;0.70;;
39098;SDS011;24844;52.380;7.018;2024-03-29T06:00:31;2.92;;;0.63;;
39098;SDS011;24844;52.380;7.018;2024-03-29T06:02:59;2.38;;;0.70;;
39098;SDS011;24844;52.380;7.018;2024-03-29T06:05:27;5.97;;;0.70;;
39098;SDS011;24844;52.380;7.018;2024-03-29T06:07:53;3.45;;;0.68;;
39098;SDS011;24844;52.380;7.018;2024-03-29T06:10:18;2.80;;;0.70;;
39098;SDS011;24844;52.380;7.018;2024-03-29T06:12:44;2.67;;;0.70;;
39098;SDS011;24844;52.380;7.018;2024-03-29T06:15:09;3.92;;;0.57;;
39098;SDS011;24844;52.380;7.018;2024-03-29T06:17:54;3.08;;;0.70;;
39098;SDS011;24844;52.380;7.018;2024-03-29T06:20:19;4.18;;;0.93;;
39098;SDS011;24844;52.380;7.018;2024-03-29T06:22:45;5.72;;;1.00;;
39098;SDS011;24844;52.380;7.018;2024-03-29T06:25:11;6.28;;;1.13;;
39098;SDS011;24844;52.380;7.018;2024-03-29T06:27:36;5.18;;;0.80;;
39098;SDS011;24844;52.380;7.018;2024-03-29T06:30:03;4.78;;;0.80;;
39098;SDS011;24844;52.380;7.018;2024-03-29T06:32:30;4.97;;;1.00;;
39098;SDS011;24844;52.380;7.018;2024-03-29T06:34:59;4.82;;;0.98;;
39098;SDS011;24844;52.380;7.018;2024-03-29T06:37:25;3.65;;;1.00;;
39098;SDS011;24844;52.380;7.018;2024-03-29T06:39:52;3.90;;;0.93;;
39098;SDS011;24844;52.380;7.018;2024-03-29T06:42:17;3.20;;;0.70;;
39098;SDS011;24844;52.380;7.018;2024-03-29T06:44:43;2.80;;;0.80;;
39098;SDS011;24844;52.380;7.018;2024-03-29T06:47:08;4.18;;;0.90;;
39098;SDS011;24844;52.380;7.018;2024-03-29T06:49:34;2.20;;;0.90;;
39098;SDS011;24844;52.380;7.018;2024-03-29T06:52:00;4.80;;;1.27;;
39098;SDS011;24844;52.380;7.018;2024-03-29T06:54:29;3.38;;;1.30;;
39098;SDS011;24844;52.380;7.018;2024-03-29T06:56:57;4.57;;;0.80;;
39098;SDS011;24844;52.380;7.018;2024-03-29T06:59:23;4.00;;;0.93;;
39098;SDS011;24844;52.380;7.018;2024-03-29T07:01:48;2.90;;;0.85;;
39098;SDS011;24844;52.380;7.018;2024-03-29T07:04:18;3.05;;;0.90;;
39098;SDS011;24844;52.380;7.018;2024-03-29T07:06:45;2.92;;;1.10;;
39098;SDS011;24844;52.380;7.018;2024-03-29T07:09:13;4.43;;;1.20;;
39098;SDS011;24844;52.380;7.018;2024-03-29T07:11:39;2.80;;;0.98;;
39098;SDS011;24844;52.380;7.018;2024-03-29T07:14:04;8.00;;;1.20;;
39098;SDS011;24844;52.380;7.018;2024-03-29T07:16:30;3.90;;;1.05;;
39098;SDS011;24844;52.380;7.018;2024-03-29T07:18:56;2.88;;;1.00;;
39098;SDS011;24844;52.380;7.018;2024-03-29T07:21:21;3.05;;;0.90;;
39098;SDS011;24844;52.380;7.018;2024-03-29T07:23:47;4.25;;;1.10;;
39098;SDS011;24844;52.380;7.018;2024-03-29T07:26:12;4.45;;;1.13;;
39098;SDS011;24844;52.380;7.018;2024-03-29T07:28:38;6.03;;;1.60;;
39098;SDS011;24844;52.380;7.018;2024-03-29T07:31:07;2.55;;;0.73;;
39098;SDS011;24844;52.380;7.018;2024-03-29T07:33:33;6.35;;;1.00;;
39098;SDS011;24844;52.380;7.018;2024-03-29T07:35:59;1.52;;;0.80;;
39098;SDS011;24844;52.380;7.018;2024-03-29T07:38:25;5.53;;;1.25;;
39098;SDS011;24844;52.380;7.018;2024-03-29T07:40:50;4.20;;;1.27;;
39098;SDS011;24844;52.380;7.018;2024-03-29T07:43:17;3.13;;;1.00;;
39098;SDS011;24844;52.380;7.018;2024-03-29T07:45:44;3.95;;;1.45;;
39098;SDS011;24844;52.380;7.018;2024-03-29T07:48:11;2.40;;;0.88;;
39098;SDS011;24844;52.380;7.018;2024-03-29T07:50:39;1.73;;;0.75;;
39098;SDS011;24844;52.380;7.018;2024-03-29T07:53:07;5.68;;;1.00;;
39098;SDS011;24844;52.380;7.018;2024-03-29T07:55:37;3.63;;;0.88;;
39098;SDS011;24844;52.380;7.018;2024-03-29T07:58:04;3.88;;;1.00;;
39098;SDS011;24844;52.380;7.018;2024-03-29T08:00:33;2.30;;;0.93;;
39098;SDS011;24844;52.380;7.018;2024-03-29T08:02:59;2.78;;;0.98;;
39098;SDS011;24844;52.380;7.018;2024-03-29T08:05:26;3.60;;;0.80;;
39098;SDS011;24844;52.380;7.018;2024-03-29T08:07:52;2.83;;;0.90;;
39098;SDS011;24844;52.380;7.018;2024-03-29T08:10:18;2.60;;;0.93;;
39098;SDS011;24844;52.380;7.018;2024-03-29T08:12:43;3.05;;;1.10;;
39098;SDS011;24844;52.380;7.018;2024-03-29T08:15:09;3.35;;;0.82;;
39098;SDS011;24844;52.380;7.018;2024-03-29T08:17:35;3.60;;;0.77;;
39098;SDS011;24844;52.380;7.018;2024-03-29T08:20:01;3.67;;;1.00;;
39098;SDS011;24844;52.380;7.018;2024-03-29T08:22:27;3.05;;;0.90;;
39098;SDS011;24844;52.380;7.018;2024-03-29T08:24:53;3.05;;;0.80;;
39098;SDS011;24844;52.380;7.018;2024-03-29T08:27:19;5.43;;;1.15;;
39098;SDS011;24844;52.380;7.018;2024-03-29T08:29:45;3.50;;;0.85;;
39098;SDS011;24844;52.380;7.018;2024-03-29T08:32:11;3.80;;;0.90;;
39098;SDS011;24844;52.380;7.018;2024-03-29T08:34:36;7.00;;;0.90;;
39098;SDS011;24844;52.380;7.018;2024-03-29T08:37:02;4.28;;;1.17;;
39098;SDS011;24844;52.380;7.018;2024-03-29T08:39:28;4.78;;;1.27;;
39098;SDS011;24844;52.380;7.018;2024-03-29T08:41:57;2.92;;;0.90;;
39098;SDS011;24844;52.380;7.018;2024-03-29T08:44:24;3.50;;;1.10;;
39098;SDS011;24844;52.380;7.018;2024-03-29T08:46:50;3.63;;;1.10;;
39098;SDS011;24844;52.380;7.018;2024-03-29T08:49:16;4.22;;;1.17;;
39098;SDS011;24844;52.380;7.018;2024-03-29T08:51:41;2.45;;;0.82;;
39098;SDS011;24844;52.380;7.018;2024-03-29T08:54:07;3.50;;;0.98;;
39098;SDS011;24844;52.380;7.018;2024-03-29T08:56:33;1.73;;;0.80;;
39098;SDS011;24844;52.380;7.018;2024-03-29T08:59:02;3.72;;;1.10;;
39098;SDS011;24844;52.380;7.018;2024-03-29T09:01:33;3.40;;;0.95;;
39098;SDS011;24844;52.380;7.018;2024-03-29T09:04:01;2.50;;;0.90;;
39098;SDS011;24844;52.380;7.018;2024-03-29T09:06:28;3.55;;;1.00;;
39098;SDS011;24844;52.380;7.018;2024-03-29T09:08:54;3.83;;;1.65;;
39098;SDS011;24844;52.380;7.018;2024-03-29T09:11:19;2.75;;;0.85;;
39098;SDS011;24844;52.380;7.018;2024-03-29T09:13:45;1.02;;;0.73;;
39098;SDS011;24844;52.380;7.018;2024-03-29T09:16:10;2.72;;;1.08;;
39098;SDS011;24844;52.380;7.018;2024-03-29T09:18:36;5.47;;;1.33;;
39098;SDS011;24844;52.380;7.018;2024-03-29T09:21:01;2.58;;;0.93;;
39098;SDS011;24844;52.380;7.018;2024-03-29T09:23:28;4.82;;;1.20;;
39098;SDS011;24844;52.380;7.018;2024-03-29T09:25:54;2.88;;;0.90;;
39098;SDS011;24844;52.380;7.018;2024-03-29T09:28:21;2.00;;;1.08;;
39098;SDS011;24844;52.380;7.018;2024-03-29T09:30:47;5.18;;;1.45;;
39098;SDS011;24844;52.380;7.018;2024-03-29T09:33:13;3.45;;;1.58;;
39098;SDS011;24844;52.380;7.018;2024-03-29T09:35:39;2.88;;;1.20;;
39098;SDS011;24844;52.380;7.018;2024-03-29T09:38:04;3.95;;;1.58;;
39098;SDS011;24844;52.380;7.018;2024-03-29T09:40:30;2.90;;;1.30;;
39098;SDS011;24844;52.380;7.018;2024-03-29T09:42:56;5.35;;;1.60;;
39098;SDS011;24844;52.380;7.018;2024-03-29T09:45:29;4.70;;;1.70;;
39098;SDS011;24844;52.380;7.018;2024-03-29T09:47:58;3.28;;;1.48;;
39098;SDS011;24844;52.380;7.018;2024-03-29T09:50:26;7.75;;;2.15;;
39098;SDS011;24844;52.380;7.018;2024-03-29T09:52:52;3.05;;;1.27;;
39098;SDS011;24844;52.380;7.018;2024-03-29T09:55:18;3.97;;;1.77;;
39098;SDS011;24844;52.380;7.018;2024-03-29T09:57:45;3.75;;;1.60;;
39098;SDS011;24844;52.380;7.018;2024-03-29T10:00:11;3.05;;;1.30;;
39098;SDS011;24844;52.380;7.018;2024-03-29T10:02:37;6.43;;;1.42;;
39098;SDS011;24844;52.380;7.018;2024-03-29T10:05:04;4.03;;;1.40;;
39098;SDS011;24844;52.380;7.018;2024-03-29T10:07:33;4.15;;;1.35;;
39098;SDS011;24844;52.380;7.018;2024-03-29T10:10:01;3.58;;;1.15;;
39098;SDS011;24844;52.380;7.018;2024-03-29T10:12:27;2.88;;;1.30;;
39098;SDS011;24844;52.380;7.018;2024-03-29T10:14:53;2.67;;;1.17;;
39098;SDS011;24844;52.380;7.018;2024-03-29T10:17:33;3.95;;;1.58;;
39098;SDS011;24844;52.380;7.018;2024-03-29T10:20:02;4.43;;;1.25;;
39098;SDS011;24844;52.380;7.018;2024-03-29T10:22:28;4.60;;;1.25;;
39098;SDS011;24844;52.380;7.018;2024-03-29T10:25:14;3.33;;;1.23;;
39098;SDS011;24844;52.380;7.018;2024-03-29T10:27:40;2.53;;;1.35;;
39098;SDS011;24844;52.380;7.018;2024-03-29T10:30:08;3.55;;;1.25;;
39098;SDS011;24844;52.380;7.018;2024-03-29T10:32:38;3.47;;;1.40;;
39098;SDS011;24844;52.380;7.018;2024-03-29T10:35:06;5.85;;;1.27;;
39098;SDS011;24844;52.380;7.018;2024-03-29T10:37:33;2.72;;;1.30;;
39098;SDS011;24844;52.380;7.018;2024-03-29T10:40:07;4.43;;;1.23;;
39098;SDS011;24844;52.380;7.018;2024-03-29T10:42:33;3.90;;;1.10;;
39098;SDS011;24844;52.380;7.018;2024-03-29T10:45:02;3.30;;;1.38;;
39098;SDS011;24844;52.380;7.018;2024-03-29T10:47:28;5.10;;;1.33;;
39098;SDS011;24844;52.380;7.018;2024-03-29T10:49:55;3.40;;;1.48;;
39098;SDS011;24844;52.380;7.018;2024-03-29T10:52:23;2.92;;;1.40;;
39098;SDS011;24844;52.380;7.018;2024-03-29T10:54:50;3.00;;;1.20;;
39098;SDS011;24844;52.380;7.018;2024-03-29T10:57:21;3.80;;;1.20;;
39098;SDS011;24844;52.380;7.018;2024-03-29T11:05:16;3.00;;;1.15;;
39098;SDS011;24844;52.380;7.018;2024-03-29T11:07:43;3.65;;;1.13;;
39098;SDS011;24844;52.380;7.018;2024-03-29T11:10:53;2.40;;;1.10;;
39098;SDS011;24844;52.380;7.018;2024-03-29T11:15:41;3.28;;;1.17;;
39098;SDS011;24844;52.380;7.018;2024-03-29T11:18:09;3.85;;;1.27;;
39098;SDS011;24844;52.380;7.018;2024-03-29T11:20:35;2.90;;;1.23;;
39098;SDS011;24844;52.380;7.018;2024-03-29T11:23:11;3.45;;;1.00;;
39098;SDS011;24844;52.380;7.018;2024-03-29T11:28:12;2.67;;;1.00;;
39098;SDS011;24844;52.380;7.018;2024-03-29T11:30:39;2.67;;;1.10;;
39098;SDS011;24844;52.380;7.018;2024-03-29T11:33:06;2.13;;;0.90;;
39098;SDS011;24844;52.380;7.018;2024-03-29T11:35:32;2.42;;;1.33;;
39098;SDS011;24844;52.380;7.018;2024-03-29T11:38:01;2.42;;;1.00;;
39098;SDS011;24844;52.380;7.018;2024-03-29T11:40:30;3.13;;;1.00;;
39098;SDS011;24844;52.380;7.018;2024-03-29T11:42:56;3.85;;;1.20;;
39098;SDS011;24844;52.380;7.018;2024-03-29T11:45:23;3.08;;;1.50;;
39098;SDS011;24844;52.380;7.018;2024-03-29T11:47:54;2.72;;;1.15;;
39098;SDS011;24844;52.380;7.018;2024-03-29T11:50:20;2.07;;;1.20;;
39098;SDS011;24844;52.380;7.018;2024-03-29T11:52:46;3.30;;;1.10;;
39098;SDS011;24844;52.380;7.018;2024-03-29T11:55:11;3.90;;;1.00;;
39098;SDS011;24844;52.380;7.018;2024-03-29T11:57:37;1.58;;;0.85;;
39098;SDS011;24844;52.380;7.018;2024-03-29T12:00:06;3.35;;;1.33;;
39098;SDS011;24844;52.380;7.018;2024-03-29T12:02:32;4.13;;;1.13;;
39098;SDS011;24844;52.380;7.018;2024-03-29T12:04:58;3.85;;;1.73;;
39098;SDS011;24844;52.380;7.018;2024-03-29T12:07:23;4.68;;;1.20;;
39098;SDS011;24844;52.380;7.018;2024-03-29T12:09:49;2.22;;;1.30;;
39098;SDS011;24844;52.380;7.018;2024-03-29T12:12:15;2.42;;;0.77;;
39098;SDS011;24844;52.380;7.018;2024-03-29T12:14:42;2.17;;;1.20;;
39098;SDS011;24844;52.380;7.018;2024-03-29T12:17:09;2.13;;;1.35;;
39098;SDS011;24844;52.380;7.018;2024-03-29T12:19:36;6.55;;;1.55;;
39098;SDS011;24844;52.380;7.018;2024-03-29T12:22:04;2.67;;;1.67;;
39098;SDS011;24844;52.380;7.018;2024-03-29T12:24:30;3.63;;;1.00;;
39098;SDS011;24844;52.380;7.018;2024-03-29T12:26:55;2.65;;;1.23;;
39098;SDS011;24844;52.380;7.018;2024-03-29T12:29:22;2.47;;;1.20;;
39098;SDS011;24844;52.380;7.018;2024-03-29T12:31:58;3.58;;;1.00;;
39098;SDS011;24844;52.380;7.018;2024-03-29T12:34:27;3.10;;;0.88;;
39098;SDS011;24844;52.380;7.018;2024-03-29T12:36:52;1.83;;;0.70;;
39098;SDS011;24844;52.380;7.018;2024-03-29T12:39:18;3.20;;;0.80;;
39098;SDS011;24844;52.380;7.018;2024-03-29T12:41:46;2.40;;;1.10;;
39098;SDS011;24844;52.380;7.018;2024-03-29T12:44:11;2.97;;;0.90;;
39098;SDS011;24844;52.380;7.018;2024-03-29T12:46:37;2.38;;;0.95;;
39098;SDS011;24844;52.380;7.018;2024-03-29T12:49:03;1.90;;;0.65;;
39098;SDS011;24844;52.380;7.018;2024-03-29T12:51:28;2.10;;;0.90;;
39098;SDS011;24844;52.380;7.018;2024-03-29T12:53:54;0.95;;;0.60;;
39098;SDS011;24844;52.380;7.018;2024-03-29T12:56:21;0.88;;;0.70;;
39098;SDS011;24844;52.380;7.018;2024-03-29T12:58:47;1.13;;;0.80;;
39098;SDS011;24844;52.380;7.018;2024-03-29T13:01:13;1.88;;;0.85;;
39098;SDS011;24844;52.380;7.018;2024-03-29T13:03:38;1.90;;;0.80;;
39098;SDS011;24844;52.380;7.018;2024-03-29T13:06:05;2.67;;;0.60;;
39098;SDS011;24844;52.380;7.018;2024-03-29T13:08:31;2.15;;;0.60;;
39098;SDS011;24844;52.380;7.018;2024-03-29T13:10:57;2.78;;;0.73;;
39098;SDS011;24844;52.380;7.018;2024-03-29T13:13:23;1.73;;;0.90;;
39098;SDS011;24844;52.380;7.018;2024-03-29T13:15:48;0.45;;;0.40;;
39098;SDS011;24844;52.380;7.018;2024-03-29T13:18:15;1.80;;;0.60;;
39098;SDS011;24844;52.380;7.018;2024-03-29T13:20:42;1.33;;;0.60;;
39098;SDS011;24844;52.380;7.018;2024-03-29T13:23:08;1.00;;;0.50;;
39098;SDS011;24844;52.380;7.018;2024-03-29T13:25:34;1.00;;;0.50;;
39098;SDS011;24844;52.380;7.018;2024-03-29T13:27:59;1.25;;;0.57;;
39098;SDS011;24844;52.380;7.018;2024-03-29T13:30:26;2.50;;;0.60;;
39098;SDS011;24844;52.380;7.018;2024-03-29T13:32:52;1.25;;;0.60;;
39098;SDS011;24844;52.380;7.018;2024-03-29T13:35:19;2.72;;;0.77;;
39098;SDS011;24844;52.380;7.018;2024-03-29T13:37:46;1.27;;;0.40;;
39098;SDS011;24844;52.380;7.018;2024-03-29T13:40:17;1.08;;;0.43;;
39098;SDS011;24844;52.380;7.018;2024-03-29T13:42:44;1.02;;;0.40;;
39098;SDS011;24844;52.380;7.018;2024-03-29T13:45:10;0.75;;;0.50;;
39098;SDS011;24844;52.380;7.018;2024-03-29T13:47:36;1.42;;;0.63;;
39098;SDS011;24844;52.380;7.018;2024-03-29T13:50:04;1.48;;;0.40;;
39098;SDS011;24844;52.380;7.018;2024-03-29T13:52:31;1.38;;;0.57;;
39098;SDS011;24844;52.380;7.018;2024-03-29T13:54:56;2.50;;;0.57;;
39098;SDS011;24844;52.380;7.018;2024-03-29T13:57:23;0.82;;;0.38;;
39098;SDS011;24844;52.380;7.018;2024-03-29T13:59:48;1.45;;;0.60;;
39098;SDS011;24844;52.380;7.018;2024-03-29T14:02:15;0.95;;;0.40;;
39098;SDS011;24844;52.380;7.018;2024-03-29T14:04:44;1.15;;;0.40;;
39098;SDS011;24844;52.380;7.018;2024-03-29T14:07:11;0.90;;;0.40;;
39098;SDS011;24844;52.380;7.018;2024-03-29T14:09:39;1.63;;;0.60;;
39098;SDS011;24844;52.380;7.018;2024-03-29T14:12:05;2.30;;;0.40;;
39098;SDS011;24844;52.380;7.018;2024-03-29T14:14:31;0.93;;;0.45;;
39098;SDS011;24844;52.380;7.018;2024-03-29T14:16:57;1.48;;;0.38;;
39098;SDS011;24844;52.380;7.018;2024-03-29T14:19:28;0.47;;;0.30;;
39098;SDS011;24844;52.380;7.018;2024-03-29T14:21:53;1.75;;;0.68;;
39098;SDS011;24844;52.380;7.018;2024-03-29T14:24:19;1.55;;;0.50;;
39098;SDS011;24844;52.380;7.018;2024-03-29T14:26:44;3.17;;;0.60;;
39098;SDS011;24844;52.380;7.018;2024-03-29T14:29:10;0.98;;;0.40;;
39098;SDS011;24844;52.380;7.018;2024-03-29T14:31:37;0.88;;;0.47;;
39098;SDS011;24844;52.380;7.018;2024-03-29T14:34:02;1.10;;;0.45;;
39098;SDS011;24844;52.380;7.018;2024-03-29T14:36:28;2.47;;;0.52;;
39098;SDS011;24844;52.380;7.018;2024-03-29T14:38:57;2.10;;;0.40;;
39098;SDS011;24844;52.380;7.018;2024-03-29T14:41:25;2.30;;;0.70;;
39098;SDS011;24844;52.380;7.018;2024-03-29T14:43:51;1.40;;;0.60;;
39098;SDS011;24844;52.380;7.018;2024-03-29T14:46:17;1.55;;;0.70;;
39098;SDS011;24844;52.380;7.018;2024-03-29T14:48:45;2.65;;;0.40;;
39098;SDS011;24844;52.380;7.018;2024-03-29T14:51:11;1.45;;;0.32;;
39098;SDS011;24844;52.380;7.018;2024-03-29T14:53:37;1.85;;;0.60;;
39098;SDS011;24844;52.380;7.018;2024-03-29T14:56:02;0.50;;;0.30;;